Terminal Aerodrome Forecast
Issued by NWS

Home | Current Version | Previous Version | Text Only | Print | Product List | Glossary On
Versions: 1 2 3 4 5 6 7 8 9 10 11 12
000
FTUS45 KVEF 280520
TAFEED
TAF
KEED 280520Z 2806/2906 32014KT P6SM SCT250
     FM280800 34015G24KT P6SM FEW250
     FM281400 35025G37KT P6SM SKC
     FM290200 36018G25KT P6SM SKC=

USA.gov is the U.S. government's official web portal to all federal, state and local government web resources and services.